Alsen, North Dakota
Current Conditions -  °F | °C
As of 6:15 AM on Friday 28 Nov 2014 (Local Time) from KD55 Reporting Station
Light Snow Light Snow  
Wind Chill: -7°   Ceiling: 200
Heat Index:   Visibility: 1.7mi
Dew Point:   Wind: 9mph
Humidity: 85%   Direction: 130°SE
Pressure: 29.93"   Gusts: NA
Location:  48.63°N, 98.7°W
Report Text: KD55 281215Z AUTO 13008KT 1 3/4SM -SN OVC002 M14/M16 A2993 RMK AO2 P0001
Loading
Personal Weather Stations






























Interactive Weather Map New forecast layout! Learn more

10-Day Weather Forecast

Advertisements
Track Severe Weather on mobile